BAW9261 LEAM-EGLL
Flight info
| Callsign | BAW9261 |
|---|---|
| Flight time | N/A |
| Altitude | 34000 |
| Route | VADAT N860 AMR M143 TOSGA N851 RESTU N860 BEGOX M445 SOPET M985 DIKUT DCT ASDIR DCT OSLAP DCT USKAR DCT MOPAS DCT GIROM DCT AGN DCT SECHE DCT UVELI DCT CNA DCT MANAK DCT EPAPU UM184 EKRAS UT507 REVTU UP87 ROXOG |
| Aircraft | A320/M-SDE3FGHIRWY/LB1 |
Departure
| Time | 2026-05-04 10:28 |
|---|---|
| Airport | Almería Airport (LEAM) |
Arrival
| Time | N/A |
|---|---|
| Airport | London Heathrow Airport (EGLL) |
| Time | Latitude | Longitude | Altitude | Speed | Heading |
|---|---|---|---|---|---|
| 2026-05-04 09:25 | 36.84695 | -2.37075 | 46 ft | 0 kts | 200° |
| 2026-05-04 10:20 | 36.84708 | -2.37069 | 45 ft | 4 kts | 200° |
| 2026-05-04 10:20 | 36.84734 | -2.37057 | 43 ft | 4 kts | 200° |
| 2026-05-04 10:20 | 36.84739 | -2.37055 | 46 ft | 0 kts | 200° |
| 2026-05-04 10:25 | 36.84622 | -2.36798 | 48 ft | 10 kts | 72° |
| 2026-05-04 10:25 | 36.84643 | -2.36710 | 49 ft | 12 kts | 73° |
| 2026-05-04 10:25 | 36.84669 | -2.36603 | 51 ft | 14 kts | 73° |
| 2026-05-04 10:25 | 36.84700 | -2.36476 | 52 ft | 16 kts | 73° |
| 2026-05-04 10:26 | 36.84736 | -2.36330 | 54 ft | 19 kts | 73° |
| 2026-05-04 10:26 | 36.84777 | -2.36164 | 54 ft | 21 kts | 72° |
| 2026-05-04 10:26 | 36.84822 | -2.35983 | 58 ft | 22 kts | 73° |
| 2026-05-04 10:26 | 36.84867 | -2.35797 | 60 ft | 23 kts | 73° |
| 2026-05-04 10:27 | 36.84914 | -2.35609 | 56 ft | 23 kts | 73° |
| 2026-05-04 10:27 | 36.84952 | -2.35431 | 58 ft | 18 kts | 88° |
| 2026-05-04 10:27 | 36.84879 | -2.35334 | 64 ft | 16 kts | 169° |
| 2026-05-04 10:27 | 36.84791 | -2.35409 | 58 ft | 19 kts | 248° |
| 2026-05-04 10:28 | 36.84713 | -2.35719 | 56 ft | 69 kts | 253° |
| 2026-05-04 10:28 | 36.84493 | -2.36609 | 48 ft | 141 kts | 252° |
| 2026-05-04 10:28 | 36.84187 | -2.37948 | 378 ft | 169 kts | 250° |
| 2026-05-04 10:28 | 36.83841 | -2.39421 | 1088 ft | 183 kts | 250° |
| 2026-05-04 10:29 | 36.83432 | -2.40976 | 1738 ft | 192 kts | 249° |
| 2026-05-04 10:29 | 36.82977 | -2.42582 | 2306 ft | 202 kts | 249° |
| 2026-05-04 10:29 | 36.82469 | -2.44271 | 2837 ft | 213 kts | 245° |
| 2026-05-04 10:29 | 36.81572 | -2.45777 | 3446 ft | 224 kts | 220° |
| 2026-05-04 10:30 | 36.80147 | -2.46586 | 4041 ft | 237 kts | 189° |
| 2026-05-04 10:30 | 36.78487 | -2.46348 | 4715 ft | 248 kts | 159° |
| 2026-05-04 10:30 | 36.77077 | -2.45045 | 5396 ft | 261 kts | 129° |
| 2026-05-04 10:30 | 36.76372 | -2.42930 | 6052 ft | 273 kts | 97° |
| 2026-05-04 10:31 | 36.76636 | -2.40572 | 6750 ft | 283 kts | 69° |
| 2026-05-04 10:31 | 36.77556 | -2.38282 | 7058 ft | 307 kts | 61° |
| 2026-05-04 10:32 | 36.85891 | -2.25913 | 11260 ft | 323 kts | 6° |
| 2026-05-04 10:33 | 36.88096 | -2.25953 | 11864 ft | 320 kts | 343° |
| 2026-05-04 10:33 | 36.90374 | -2.26441 | 12003 ft | 344 kts | 346° |
| 2026-05-04 10:33 | 36.92839 | -2.26788 | 12133 ft | 368 kts | 350° |
| 2026-05-04 10:33 | 36.95446 | -2.27006 | 12530 ft | 380 kts | 352° |
| 2026-05-04 10:34 | 36.98109 | -2.27142 | 13094 ft | 386 kts | 353° |
| 2026-05-04 10:34 | 37.00804 | -2.27254 | 13745 ft | 388 kts | 353° |
| 2026-05-04 10:34 | 37.03518 | -2.27371 | 14336 ft | 391 kts | 352° |
| 2026-05-04 10:34 | 37.06251 | -2.27509 | 14900 ft | 394 kts | 352° |
| 2026-05-04 10:35 | 37.09000 | -2.27671 | 15440 ft | 397 kts | 351° |
| 2026-05-04 10:35 | 37.11776 | -2.27854 | 15970 ft | 401 kts | 351° |
| 2026-05-04 10:35 | 37.14538 | -2.28042 | 16484 ft | 404 kts | 351° |
| 2026-05-04 10:35 | 37.17400 | -2.28238 | 17031 ft | 408 kts | 351° |
| 2026-05-04 10:36 | 37.20238 | -2.28429 | 17522 ft | 411 kts | 350° |
| 2026-05-04 10:36 | 37.23076 | -2.28615 | 18018 ft | 415 kts | 350° |
| 2026-05-04 10:36 | 37.25974 | -2.28804 | 18540 ft | 418 kts | 350° |
| 2026-05-04 10:36 | 37.28894 | -2.29000 | 19017 ft | 422 kts | 350° |
| 2026-05-04 10:37 | 37.31828 | -2.29194 | 19626 ft | 424 kts | 350° |
| 2026-05-04 10:37 | 37.34792 | -2.29367 | 20155 ft | 428 kts | 351° |
| 2026-05-04 10:37 | 37.37784 | -2.29522 | 20670 ft | 432 kts | 351° |
| 2026-05-04 10:37 | 37.40798 | -2.29669 | 21160 ft | 435 kts | 351° |
| 2026-05-04 10:39 | 37.59339 | -2.28752 | 23614 ft | 475 kts | 19° |
| 2026-05-04 10:39 | 37.62229 | -2.26644 | 23967 ft | 486 kts | 34° |
| 2026-05-04 10:39 | 37.64696 | -2.23707 | 24301 ft | 492 kts | 49° |
| 2026-05-04 10:40 | 37.66593 | -2.20099 | 24634 ft | 496 kts | 64° |
| 2026-05-04 10:40 | 37.68097 | -2.16166 | 24984 ft | 498 kts | 65° |
| 2026-05-04 10:40 | 37.69570 | -2.12262 | 25301 ft | 500 kts | 65° |
| 2026-05-04 10:40 | 37.71085 | -2.08236 | 25601 ft | 503 kts | 65° |
| 2026-05-04 10:41 | 37.72573 | -2.04289 | 25902 ft | 506 kts | 65° |
| 2026-05-04 10:41 | 37.74091 | -2.00271 | 26210 ft | 508 kts | 65° |
| 2026-05-04 10:41 | 37.75618 | -1.96226 | 26512 ft | 511 kts | 65° |
| 2026-05-04 10:41 | 37.77146 | -1.92166 | 26828 ft | 513 kts | 65° |
| 2026-05-04 10:42 | 37.78681 | -1.88087 | 27117 ft | 515 kts | 65° |
| 2026-05-04 10:42 | 37.80224 | -1.83980 | 27413 ft | 518 kts | 66° |
| 2026-05-04 10:42 | 37.81772 | -1.79849 | 27707 ft | 520 kts | 66° |
| 2026-05-04 10:42 | 37.83320 | -1.75714 | 28105 ft | 520 kts | 66° |
| 2026-05-04 10:43 | 37.84863 | -1.71588 | 28511 ft | 519 kts | 66° |
| 2026-05-04 10:44 | 38.01228 | -1.48851 | 31190 ft | 506 kts | 23° |
| 2026-05-04 10:45 | 38.04343 | -1.46787 | 31568 ft | 505 kts | 23° |
| 2026-05-04 10:45 | 38.07456 | -1.44715 | 31949 ft | 505 kts | 23° |
| 2026-05-04 10:45 | 38.10556 | -1.42646 | 32332 ft | 504 kts | 23° |
| 2026-05-04 10:45 | 38.13661 | -1.40569 | 32719 ft | 502 kts | 23° |
| 2026-05-04 10:46 | 38.16754 | -1.38496 | 33020 ft | 502 kts | 23° |
| 2026-05-04 10:46 | 38.19841 | -1.36425 | 33384 ft | 502 kts | 23° |
| 2026-05-04 10:46 | 38.22924 | -1.34353 | 33759 ft | 501 kts | 23° |
| 2026-05-04 10:46 | 38.26007 | -1.32278 | 33974 ft | 501 kts | 23° |
| 2026-05-04 10:47 | 38.29110 | -1.30193 | 34010 ft | 508 kts | 23° |
| 2026-05-04 10:47 | 38.35411 | -1.25965 | 34007 ft | 513 kts | 23° |
| 2026-05-04 10:49 | 38.60658 | -1.08892 | 34007 ft | 514 kts | 23° |
| 2026-05-04 10:50 | 38.66988 | -1.04597 | 34010 ft | 514 kts | 24° |
| 2026-05-04 10:52 | 38.92241 | -0.87344 | 34015 ft | 516 kts | 24° |
| 2026-05-04 10:52 | 38.98577 | -0.82995 | 34021 ft | 516 kts | 24° |
| 2026-05-04 10:54 | 39.19146 | -0.64238 | 33996 ft | 522 kts | 37° |
| 2026-05-04 10:54 | 39.21942 | -0.61261 | 33992 ft | 522 kts | 37° |
| 2026-05-04 10:56 | 39.44866 | -0.38385 | 33988 ft | 522 kts | 33° |
| 2026-05-04 10:57 | 39.50677 | -0.32746 | 33989 ft | 522 kts | 34° |
| 2026-05-04 10:57 | 39.56452 | -0.27057 | 33984 ft | 521 kts | 34° |
| 2026-05-04 10:58 | 39.62223 | -0.21367 | 33982 ft | 521 kts | 34° |
| 2026-05-04 10:58 | 39.68008 | -0.15681 | 33985 ft | 521 kts | 34° |
| 2026-05-04 10:59 | 39.73760 | -0.10035 | 33990 ft | 521 kts | 34° |
| 2026-05-04 10:59 | 39.79545 | -0.04340 | 33989 ft | 521 kts | 34° |
| 2026-05-04 11:00 | 39.85063 | 0.01779 | 33986 ft | 524 kts | 45° |
| 2026-05-04 11:01 | 40.03788 | 0.24236 | 33962 ft | 519 kts | 20° |
| 2026-05-04 11:02 | 40.07127 | 0.25940 | 33963 ft | 513 kts | 11° |
| 2026-05-04 11:05 | 40.58499 | 0.45411 | 33994 ft | 512 kts | 10° |
| 2026-05-04 11:06 | 40.65340 | 0.48032 | 33996 ft | 513 kts | 10° |
| 2026-05-04 11:06 | 40.72195 | 0.50675 | 33994 ft | 513 kts | 11° |
| 2026-05-04 11:10 | 41.20060 | 0.69200 | 33994 ft | 512 kts | 11° |
| 2026-05-04 11:12 | 41.46238 | 0.79430 | 33995 ft | 512 kts | 11° |
| 2026-05-04 11:12 | 41.54180 | 0.82559 | 33992 ft | 511 kts | 11° |
| 2026-05-04 11:13 | 41.61000 | 0.85251 | 33991 ft | 511 kts | 11° |
| 2026-05-04 11:13 | 41.67822 | 0.87946 | 33991 ft | 511 kts | 11° |
| 2026-05-04 11:14 | 41.73536 | 0.90213 | 33991 ft | 511 kts | 11° |
| 2026-05-04 11:16 | 42.00771 | 1.01056 | 34001 ft | 511 kts | 11° |
| 2026-05-04 11:16 | 42.07578 | 1.03791 | 34008 ft | 510 kts | 12° |
| 2026-05-04 11:17 | 42.14444 | 1.05923 | 34013 ft | 501 kts | 359° |
| 2026-05-04 11:19 | 42.38201 | 1.04012 | 34012 ft | 488 kts | 349° |
| 2026-05-04 11:19 | 42.41595 | 1.03655 | 34014 ft | 488 kts | 348° |
| 2026-05-04 11:19 | 42.48366 | 1.02918 | 34012 ft | 488 kts | 348° |
| 2026-05-04 11:20 | 42.55135 | 1.02158 | 34003 ft | 488 kts | 348° |
| 2026-05-04 11:20 | 42.61909 | 1.01420 | 34003 ft | 488 kts | 349° |
| 2026-05-04 11:22 | 42.88938 | 0.98396 | 33995 ft | 487 kts | 349° |
| 2026-05-04 11:23 | 42.95707 | 0.97654 | 33995 ft | 487 kts | 349° |
| 2026-05-04 11:25 | 43.19358 | 0.95031 | 33988 ft | 486 kts | 349° |
| 2026-05-04 11:25 | 43.26105 | 0.94279 | 33980 ft | 486 kts | 349° |